MSC Opera — H3FV — position and weather

sailwx.info

Track history (hours):
 
Tides and Currents Weather Stations Pressure Air Temp Water Temp Dewpoint Dewpoint Depression Visibility Wind Speed Wind Dir Waves Ship Positions

MSC Opera

Operator: Mediterranean Shipping Company

Last reported at 2019-Nov-20 08:29 UTC. Time now 2019-Nov-20 09:23 UTC.
Position N 44°25' E 008°55'.

Length 275 m; draft 6.8 m.

Type: Passenger vessel. MMSI: 357627000.

Date/timePositionNaut miles runAvg speedWind from/ knotsBaromVisibWave heightAir tempDewpointWater temp
2019-Nov-20 08:29N 44°25' E 008°55'0 0.0
2019-Nov-20 07:29N 44°25' E 008°55'0 0.0
2019-Nov-20 06:28N 44°25' E 008°55'12 6.2
2019-Nov-20 04:30N 44°13' E 009°02'1414.3
2019-Nov-20 03:30N 43°60' E 009°08'1414.4
2019-Nov-20 02:30N 43°46' E 009°14'368 8.1
2019-Nov-18 05:21N 39°20' E 003°36'2619.1
2019-Nov-18 03:58N 39°07' E 003°06'1019.0
2019-Nov-18 03:28N 39°03' E 002°55'  
2019-Nov-14 19:00N 29°06' W 015°18'817.1
2019-Nov-14 18:30N 29°00' W 015°25'917.3
2019-Nov-14 18:00N 28°55' W 015°32'917.5
2019-Nov-14 17:30N 28°49' W 015°40'37 5.2
2019-Nov-14 10:28N 28°29' W 016°14'10 2.6
2019-Nov-14 06:30N 28°33' W 016°04'  
2019-Nov-11 21:07N 36°02' W 005°18'316.0
2019-Nov-11 20:57N 36°04' W 005°15'141 9.4
2019-Nov-11 05:54N 36°26' W 002°22'  
Track history (hours):
 
Tides and Currents Weather Stations Pressure Air Temp Water Temp Dewpoint Dewpoint Depression Visibility Wind Speed Wind Dir Waves Ship Positions

MSC Opera

Operator: Mediterranean Shipping Company

Last reported at 2019-Nov-20 08:29 UTC. Time now 2019-Nov-20 09:23 UTC.
Position N 44°25' E 008°55'.

Length 275 m; draft 6.8 m.

Type: Passenger vessel. MMSI: 357627000.

Date/timePositionNaut miles runAvg speedWind from/ knotsBaromVisibWave heightAir tempDewpointWater temp
2019-Nov-20 08:29N 44°25' E 008°55'0 0.0
2019-Nov-20 07:29N 44°25' E 008°55'0 0.0
2019-Nov-20 06:28N 44°25' E 008°55'12 6.2
2019-Nov-20 04:30N 44°13' E 009°02'1414.3
2019-Nov-20 03:30N 43°60' E 009°08'1414.4
2019-Nov-20 02:30N 43°46' E 009°14'368 8.1
2019-Nov-18 05:21N 39°20' E 003°36'2619.1
2019-Nov-18 03:58N 39°07' E 003°06'1019.0
2019-Nov-18 03:28N 39°03' E 002°55'  
2019-Nov-14 19:00N 29°06' W 015°18'817.1
2019-Nov-14 18:30N 29°00' W 015°25'917.3
2019-Nov-14 18:00N 28°55' W 015°32'917.5
2019-Nov-14 17:30N 28°49' W 015°40'37 5.2
2019-Nov-14 10:28N 28°29' W 016°14'10 2.6
2019-Nov-14 06:30N 28°33' W 016°04'  
2019-Nov-11 21:07N 36°02' W 005°18'316.0
2019-Nov-11 20:57N 36°04' W 005°15'141 9.4
2019-Nov-11 05:54N 36°26' W 002°22'  

Dump ship's entire track history